sensor_id;sensor_type;location;lat;lon;timestamp;temperature;humidity
38726;DHT22;24474;48.906;8.808;2023-08-06T00:00:11;15.10;99.90
38726;DHT22;24474;48.906;8.808;2023-08-06T00:02:36;15.00;99.90
38726;DHT22;24474;48.906;8.808;2023-08-06T00:05:02;15.00;99.90
38726;DHT22;24474;48.906;8.808;2023-08-06T00:07:28;15.00;99.90
38726;DHT22;24474;48.906;8.808;2023-08-06T00:09:53;15.00;99.90
38726;DHT22;24474;48.906;8.808;2023-08-06T00:12:19;14.90;99.90
38726;DHT22;24474;48.906;8.808;2023-08-06T00:14:45;14.90;99.90
38726;DHT22;24474;48.906;8.808;2023-08-06T00:17:11;14.90;99.90
38726;DHT22;24474;48.906;8.808;2023-08-06T00:19:36;14.90;99.90
38726;DHT22;24474;48.906;8.808;2023-08-06T00:22:02;14.90;99.90
38726;DHT22;24474;48.906;8.808;2023-08-06T00:24:28;14.90;99.90
38726;DHT22;24474;48.906;8.808;2023-08-06T00:26:53;14.80;99.90
38726;DHT22;24474;48.906;8.808;2023-08-06T00:29:19;14.80;99.90
38726;DHT22;24474;48.906;8.808;2023-08-06T00:31:45;14.80;99.90
38726;DHT22;24474;48.906;8.808;2023-08-06T00:34:10;14.80;99.90
38726;DHT22;24474;48.906;8.808;2023-08-06T00:36:36;14.80;99.90
38726;DHT22;24474;48.906;8.808;2023-08-06T00:39:02;14.80;99.90
38726;DHT22;24474;48.906;8.808;2023-08-06T00:41:28;14.70;99.90
38726;DHT22;24474;48.906;8.808;2023-08-06T00:43:53;14.70;99.90
38726;DHT22;24474;48.906;8.808;2023-08-06T00:46:20;14.80;99.90
38726;DHT22;24474;48.906;8.808;2023-08-06T00:48:46;14.70;99.90
38726;DHT22;24474;48.906;8.808;2023-08-06T00:51:12;14.70;99.90
38726;DHT22;24474;48.906;8.808;2023-08-06T00:53:39;14.70;99.90
38726;DHT22;24474;48.906;8.808;2023-08-06T00:56:05;14.70;99.90
38726;DHT22;24474;48.906;8.808;2023-08-06T00:58:32;14.60;99.90
38726;DHT22;24474;48.906;8.808;2023-08-06T01:00:58;14.60;99.90
38726;DHT22;24474;48.906;8.808;2023-08-06T01:03:23;14.60;99.90
38726;DHT22;24474;48.906;8.808;2023-08-06T01:05:49;14.60;99.90
38726;DHT22;24474;48.906;8.808;2023-08-06T01:08:32;14.60;99.90
38726;DHT22;24474;48.906;8.808;2023-08-06T01:11:14;14.60;99.90
38726;DHT22;24474;48.906;8.808;2023-08-06T01:13:46;14.50;99.90
38726;DHT22;24474;48.906;8.808;2023-08-06T01:16:17;14.60;99.90
38726;DHT22;24474;48.906;8.808;2023-08-06T01:18:43;14.60;99.90
38726;DHT22;24474;48.906;8.808;2023-08-06T01:21:12;14.60;99.90
38726;DHT22;24474;48.906;8.808;2023-08-06T01:23:38;14.50;99.90
38726;DHT22;24474;48.906;8.808;2023-08-06T01:26:22;14.60;99.90
38726;DHT22;24474;48.906;8.808;2023-08-06T01:29:13;14.60;99.90
38726;DHT22;24474;48.906;8.808;2023-08-06T01:31:43;14.60;99.90
38726;DHT22;24474;48.906;8.808;2023-08-06T01:34:17;14.50;99.90
38726;DHT22;24474;48.906;8.808;2023-08-06T01:36:43;14.50;99.90
38726;DHT22;24474;48.906;8.808;2023-08-06T01:39:10;14.50;99.90
38726;DHT22;24474;48.906;8.808;2023-08-06T01:41:35;14.50;99.90
38726;DHT22;24474;48.906;8.808;2023-08-06T01:44:01;14.40;99.90
38726;DHT22;24474;48.906;8.808;2023-08-06T01:46:27;14.40;99.90
38726;DHT22;24474;48.906;8.808;2023-08-06T01:48:52;14.40;99.90
38726;DHT22;24474;48.906;8.808;2023-08-06T01:51:18;14.40;99.90
38726;DHT22;24474;48.906;8.808;2023-08-06T01:53:44;14.40;99.90
38726;DHT22;24474;48.906;8.808;2023-08-06T01:56:09;14.40;99.90
38726;DHT22;24474;48.906;8.808;2023-08-06T01:58:35;14.40;99.90
38726;DHT22;24474;48.906;8.808;2023-08-06T02:01:01;14.30;99.90
38726;DHT22;24474;48.906;8.808;2023-08-06T02:03:27;14.30;99.90
38726;DHT22;24474;48.906;8.808;2023-08-06T02:05:53;14.30;99.90
38726;DHT22;24474;48.906;8.808;2023-08-06T02:08:18;14.30;99.90
38726;DHT22;24474;48.906;8.808;2023-08-06T02:10:45;14.30;99.90
38726;DHT22;24474;48.906;8.808;2023-08-06T02:13:10;14.30;99.90
38726;DHT22;24474;48.906;8.808;2023-08-06T02:15:45;14.30;99.90
38726;DHT22;24474;48.906;8.808;2023-08-06T02:18:13;14.30;99.90
38726;DHT22;24474;48.906;8.808;2023-08-06T02:20:40;14.30;99.90
38726;DHT22;24474;48.906;8.808;2023-08-06T02:23:05;14.30;99.90
38726;DHT22;24474;48.906;8.808;2023-08-06T02:25:32;14.30;99.90
38726;DHT22;24474;48.906;8.808;2023-08-06T02:27:58;14.30;99.90
38726;DHT22;24474;48.906;8.808;2023-08-06T02:30:24;14.30;99.90
38726;DHT22;24474;48.906;8.808;2023-08-06T02:32:49;14.30;99.90
38726;DHT22;24474;48.906;8.808;2023-08-06T02:35:15;14.30;99.90
38726;DHT22;24474;48.906;8.808;2023-08-06T02:37:40;14.20;99.90
38726;DHT22;24474;48.906;8.808;2023-08-06T02:40:07;14.30;99.90
38726;DHT22;24474;48.906;8.808;2023-08-06T02:42:32;14.20;99.90
38726;DHT22;24474;48.906;8.808;2023-08-06T02:44:58;14.20;99.90
38726;DHT22;24474;48.906;8.808;2023-08-06T02:47:24;14.20;99.90
38726;DHT22;24474;48.906;8.808;2023-08-06T02:49:49;14.20;99.90
38726;DHT22;24474;48.906;8.808;2023-08-06T02:52:15;14.20;99.90
38726;DHT22;24474;48.906;8.808;2023-08-06T02:54:41;14.20;99.90
38726;DHT22;24474;48.906;8.808;2023-08-06T02:57:06;14.20;99.90
38726;DHT22;24474;48.906;8.808;2023-08-06T02:59:32;14.20;99.90
38726;DHT22;24474;48.906;8.808;2023-08-06T03:01:58;14.20;99.90
38726;DHT22;24474;48.906;8.808;2023-08-06T03:04:24;14.20;99.90
38726;DHT22;24474;48.906;8.808;2023-08-06T03:06:50;14.20;99.90
38726;DHT22;24474;48.906;8.808;2023-08-06T03:09:16;14.30;99.90
38726;DHT22;24474;48.906;8.808;2023-08-06T03:11:42;14.30;99.90
38726;DHT22;24474;48.906;8.808;2023-08-06T03:14:08;14.30;99.90
38726;DHT22;24474;48.906;8.808;2023-08-06T03:16:33;14.30;99.90
38726;DHT22;24474;48.906;8.808;2023-08-06T03:18:59;14.30;99.90
38726;DHT22;24474;48.906;8.808;2023-08-06T03:21:25;14.30;99.90
38726;DHT22;24474;48.906;8.808;2023-08-06T03:23:50;14.30;99.90
38726;DHT22;24474;48.906;8.808;2023-08-06T03:26:16;14.30;99.90
38726;DHT22;24474;48.906;8.808;2023-08-06T03:28:42;14.20;99.90
38726;DHT22;24474;48.906;8.808;2023-08-06T03:31:08;14.30;99.90
38726;DHT22;24474;48.906;8.808;2023-08-06T03:33:33;14.20;99.90
38726;DHT22;24474;48.906;8.808;2023-08-06T03:35:59;14.20;99.90
38726;DHT22;24474;48.906;8.808;2023-08-06T03:38:25;14.30;99.90
38726;DHT22;24474;48.906;8.808;2023-08-06T03:40:50;14.30;99.90
38726;DHT22;24474;48.906;8.808;2023-08-06T03:43:16;14.30;99.90
38726;DHT22;24474;48.906;8.808;2023-08-06T03:45:42;14.30;99.90
38726;DHT22;24474;48.906;8.808;2023-08-06T03:48:09;14.30;99.90
38726;DHT22;24474;48.906;8.808;2023-08-06T03:50:35;14.30;99.90
38726;DHT22;24474;48.906;8.808;2023-08-06T03:53:01;14.30;99.90
38726;DHT22;24474;48.906;8.808;2023-08-06T03:55:26;14.30;99.90
38726;DHT22;24474;48.906;8.808;2023-08-06T03:57:52;14.30;99.90
38726;DHT22;24474;48.906;8.808;2023-08-06T04:00:18;14.30;99.90
38726;DHT22;24474;48.906;8.808;2023-08-06T04:02:43;14.30;99.90
38726;DHT22;24474;48.906;8.808;2023-08-06T04:05:09;14.20;99.90
38726;DHT22;24474;48.906;8.808;2023-08-06T04:07:35;14.20;99.90
38726;DHT22;24474;48.906;8.808;2023-08-06T04:10:03;14.10;99.90
38726;DHT22;24474;48.906;8.808;2023-08-06T04:12:30;14.20;99.90
38726;DHT22;24474;48.906;8.808;2023-08-06T04:14:57;14.20;99.90
38726;DHT22;24474;48.906;8.808;2023-08-06T04:17:23;14.20;99.90
38726;DHT22;24474;48.906;8.808;2023-08-06T04:19:51;14.20;99.90
38726;DHT22;24474;48.906;8.808;2023-08-06T04:22:17;14.20;99.90
38726;DHT22;24474;48.906;8.808;2023-08-06T04:24:43;14.20;99.90
38726;DHT22;24474;48.906;8.808;2023-08-06T04:27:09;14.20;99.90
38726;DHT22;24474;48.906;8.808;2023-08-06T04:29:36;14.20;99.90
38726;DHT22;24474;48.906;8.808;2023-08-06T04:32:03;14.10;99.90
38726;DHT22;24474;48.906;8.808;2023-08-06T04:34:29;14.10;99.90
38726;DHT22;24474;48.906;8.808;2023-08-06T04:36:54;14.20;99.90
38726;DHT22;24474;48.906;8.808;2023-08-06T04:39:20;14.20;99.90
38726;DHT22;24474;48.906;8.808;2023-08-06T04:41:45;14.20;99.90
38726;DHT22;24474;48.906;8.808;2023-08-06T04:44:11;14.20;99.90
38726;DHT22;24474;48.906;8.808;2023-08-06T04:46:37;14.20;99.90
38726;DHT22;24474;48.906;8.808;2023-08-06T04:49:02;14.30;99.90
38726;DHT22;24474;48.906;8.808;2023-08-06T04:51:28;14.30;99.90
38726;DHT22;24474;48.906;8.808;2023-08-06T04:53:53;14.30;99.90
38726;DHT22;24474;48.906;8.808;2023-08-06T04:56:19;14.30;99.90
38726;DHT22;24474;48.906;8.808;2023-08-06T04:58:44;14.30;99.90
38726;DHT22;24474;48.906;8.808;2023-08-06T05:01:10;14.30;99.90
38726;DHT22;24474;48.906;8.808;2023-08-06T05:03:36;14.40;99.90
38726;DHT22;24474;48.906;8.808;2023-08-06T05:06:01;14.40;99.90
38726;DHT22;24474;48.906;8.808;2023-08-06T05:08:27;14.40;99.90
38726;DHT22;24474;48.906;8.808;2023-08-06T05:10:52;14.40;99.90
38726;DHT22;24474;48.906;8.808;2023-08-06T05:13:18;14.40;99.90
38726;DHT22;24474;48.906;8.808;2023-08-06T05:15:44;14.40;99.90
38726;DHT22;24474;48.906;8.808;2023-08-06T05:18:11;14.40;99.90
38726;DHT22;24474;48.906;8.808;2023-08-06T05:20:41;14.40;99.90
38726;DHT22;24474;48.906;8.808;2023-08-06T05:23:07;14.40;99.90
38726;DHT22;24474;48.906;8.808;2023-08-06T05:25:34;14.30;99.90
38726;DHT22;24474;48.906;8.808;2023-08-06T05:28:01;14.30;99.90
38726;DHT22;24474;48.906;8.808;2023-08-06T05:30:27;14.40;99.90
38726;DHT22;24474;48.906;8.808;2023-08-06T05:32:53;14.40;99.90
38726;DHT22;24474;48.906;8.808;2023-08-06T05:35:19;14.40;99.90
38726;DHT22;24474;48.906;8.808;2023-08-06T05:37:46;14.50;99.90
38726;DHT22;24474;48.906;8.808;2023-08-06T05:40:11;14.50;99.90
38726;DHT22;24474;48.906;8.808;2023-08-06T05:42:37;14.50;99.90
38726;DHT22;24474;48.906;8.808;2023-08-06T05:45:03;14.50;99.90
38726;DHT22;24474;48.906;8.808;2023-08-06T05:47:28;14.50;99.90
38726;DHT22;24474;48.906;8.808;2023-08-06T05:49:54;14.50;99.90
38726;DHT22;24474;48.906;8.808;2023-08-06T05:52:19;14.50;99.90
38726;DHT22;24474;48.906;8.808;2023-08-06T05:54:45;14.50;99.90
38726;DHT22;24474;48.906;8.808;2023-08-06T05:57:11;14.50;99.90
38726;DHT22;24474;48.906;8.808;2023-08-06T05:59:36;14.50;99.90
38726;DHT22;24474;48.906;8.808;2023-08-06T06:02:02;14.60;99.90
38726;DHT22;24474;48.906;8.808;2023-08-06T06:04:31;14.60;99.90
38726;DHT22;24474;48.906;8.808;2023-08-06T06:06:56;14.60;99.90
38726;DHT22;24474;48.906;8.808;2023-08-06T06:09:22;14.60;99.90
38726;DHT22;24474;48.906;8.808;2023-08-06T06:11:47;14.60;99.90
38726;DHT22;24474;48.906;8.808;2023-08-06T06:14:18;14.70;99.90
38726;DHT22;24474;48.906;8.808;2023-08-06T06:16:44;14.70;99.90
38726;DHT22;24474;48.906;8.808;2023-08-06T06:19:09;14.70;99.90
38726;DHT22;24474;48.906;8.808;2023-08-06T06:21:35;14.70;99.90
38726;DHT22;24474;48.906;8.808;2023-08-06T06:24:01;14.70;99.90
38726;DHT22;24474;48.906;8.808;2023-08-06T06:26:27;14.70;99.90
38726;DHT22;24474;48.906;8.808;2023-08-06T06:28:52;14.70;99.90
38726;DHT22;24474;48.906;8.808;2023-08-06T06:31:18;14.70;99.90
38726;DHT22;24474;48.906;8.808;2023-08-06T06:33:44;14.70;99.90
38726;DHT22;24474;48.906;8.808;2023-08-06T06:36:09;14.70;99.90
38726;DHT22;24474;48.906;8.808;2023-08-06T06:38:36;14.70;99.90
38726;DHT22;24474;48.906;8.808;2023-08-06T06:41:02;14.80;99.90
38726;DHT22;24474;48.906;8.808;2023-08-06T06:43:28;14.80;99.90
38726;DHT22;24474;48.906;8.808;2023-08-06T06:45:58;14.90;99.90
38726;DHT22;24474;48.906;8.808;2023-08-06T06:48:28;14.90;99.90
38726;DHT22;24474;48.906;8.808;2023-08-06T06:50:54;14.90;99.90
38726;DHT22;24474;48.906;8.808;2023-08-06T06:53:20;14.90;99.90
38726;DHT22;24474;48.906;8.808;2023-08-06T06:55:48;15.00;99.90
38726;DHT22;24474;48.906;8.808;2023-08-06T06:58:15;15.00;99.90
38726;DHT22;24474;48.906;8.808;2023-08-06T07:00:42;15.00;99.90
38726;DHT22;24474;48.906;8.808;2023-08-06T07:03:07;15.10;99.90
38726;DHT22;24474;48.906;8.808;2023-08-06T07:05:33;15.10;99.90
38726;DHT22;24474;48.906;8.808;2023-08-06T07:07:58;15.10;99.90
38726;DHT22;24474;48.906;8.808;2023-08-06T07:10:25;15.10;99.90
38726;DHT22;24474;48.906;8.808;2023-08-06T07:12:51;15.00;99.90
38726;DHT22;24474;48.906;8.808;2023-08-06T07:15:16;15.10;99.90
38726;DHT22;24474;48.906;8.808;2023-08-06T07:17:43;15.10;99.90
38726;DHT22;24474;48.906;8.808;2023-08-06T07:20:09;15.10;99.90
38726;DHT22;24474;48.906;8.808;2023-08-06T07:22:34;15.10;99.90
38726;DHT22;24474;48.906;8.808;2023-08-06T07:25:01;15.20;99.90
38726;DHT22;24474;48.906;8.808;2023-08-06T07:27:26;15.20;99.90
38726;DHT22;24474;48.906;8.808;2023-08-06T07:29:52;15.30;99.90
38726;DHT22;24474;48.906;8.808;2023-08-06T07:32:18;15.20;99.90
38726;DHT22;24474;48.906;8.808;2023-08-06T07:34:43;15.20;99.90
38726;DHT22;24474;48.906;8.808;2023-08-06T07:37:09;15.10;99.90
38726;DHT22;24474;48.906;8.808;2023-08-06T07:39:34;15.20;99.90
38726;DHT22;24474;48.906;8.808;2023-08-06T07:42:00;15.20;99.90
38726;DHT22;24474;48.906;8.808;2023-08-06T07:44:28;15.20;99.90
38726;DHT22;24474;48.906;8.808;2023-08-06T07:46:53;15.20;99.90
38726;DHT22;24474;48.906;8.808;2023-08-06T07:49:19;15.20;99.90
38726;DHT22;24474;48.906;8.808;2023-08-06T07:51:44;15.30;99.90
38726;DHT22;24474;48.906;8.808;2023-08-06T07:54:10;15.30;99.90
38726;DHT22;24474;48.906;8.808;2023-08-06T07:56:35;15.30;99.90
38726;DHT22;24474;48.906;8.808;2023-08-06T07:59:02;15.40;99.90
38726;DHT22;24474;48.906;8.808;2023-08-06T08:01:27;15.50;99.90
38726;DHT22;24474;48.906;8.808;2023-08-06T08:03:53;15.40;99.90
38726;DHT22;24474;48.906;8.808;2023-08-06T08:06:18;15.40;99.90
38726;DHT22;24474;48.906;8.808;2023-08-06T08:08:44;15.60;99.90
38726;DHT22;24474;48.906;8.808;2023-08-06T08:11:09;15.60;99.90
38726;DHT22;24474;48.906;8.808;2023-08-06T08:13:36;15.60;99.90
38726;DHT22;24474;48.906;8.808;2023-08-06T08:16:02;15.70;99.90
38726;DHT22;24474;48.906;8.808;2023-08-06T08:18:28;15.70;99.90
38726;DHT22;24474;48.906;8.808;2023-08-06T08:20:53;15.70;99.90
38726;DHT22;24474;48.906;8.808;2023-08-06T08:23:19;15.80;99.90
38726;DHT22;24474;48.906;8.808;2023-08-06T08:25:44;15.80;99.90
38726;DHT22;24474;48.906;8.808;2023-08-06T08:28:10;15.80;99.90
38726;DHT22;24474;48.906;8.808;2023-08-06T08:30:36;15.90;99.90
38726;DHT22;24474;48.906;8.808;2023-08-06T08:33:01;15.90;99.90
38726;DHT22;24474;48.906;8.808;2023-08-06T08:35:27;16.00;99.90
38726;DHT22;24474;48.906;8.808;2023-08-06T08:37:53;16.00;99.90
38726;DHT22;24474;48.906;8.808;2023-08-06T08:40:20;15.80;99.90
38726;DHT22;24474;48.906;8.808;2023-08-06T08:42:47;15.80;99.90
38726;DHT22;24474;48.906;8.808;2023-08-06T08:45:14;15.70;99.90
38726;DHT22;24474;48.906;8.808;2023-08-06T08:47:41;15.70;99.90
38726;DHT22;24474;48.906;8.808;2023-08-06T08:50:10;15.80;99.90
38726;DHT22;24474;48.906;8.808;2023-08-06T08:52:38;15.90;99.90
38726;DHT22;24474;48.906;8.808;2023-08-06T08:55:09;15.90;99.90
38726;DHT22;24474;48.906;8.808;2023-08-06T08:57:36;16.10;99.90
38726;DHT22;24474;48.906;8.808;2023-08-06T09:00:02;16.10;99.90
38726;DHT22;24474;48.906;8.808;2023-08-06T09:02:28;16.10;99.90
38726;DHT22;24474;48.906;8.808;2023-08-06T09:04:58;16.10;99.90
38726;DHT22;24474;48.906;8.808;2023-08-06T09:07:27;16.10;99.90
38726;DHT22;24474;48.906;8.808;2023-08-06T09:09:53;16.10;99.90
38726;DHT22;24474;48.906;8.808;2023-08-06T09:12:19;16.20;99.90
38726;DHT22;24474;48.906;8.808;2023-08-06T09:14:46;16.20;99.90
38726;DHT22;24474;48.906;8.808;2023-08-06T09:17:13;16.20;99.90
38726;DHT22;24474;48.906;8.808;2023-08-06T09:19:42;16.20;99.90
38726;DHT22;24474;48.906;8.808;2023-08-06T09:22:12;16.20;99.90
38726;DHT22;24474;48.906;8.808;2023-08-06T09:24:40;16.10;99.90
38726;DHT22;24474;48.906;8.808;2023-08-06T09:27:14;16.10;99.90
38726;DHT22;24474;48.906;8.808;2023-08-06T09:29:42;16.00;99.90
38726;DHT22;24474;48.906;8.808;2023-08-06T09:32:08;16.00;99.90
38726;DHT22;24474;48.906;8.808;2023-08-06T09:34:33;16.00;99.90
38726;DHT22;24474;48.906;8.808;2023-08-06T09:36:59;16.00;99.90
38726;DHT22;24474;48.906;8.808;2023-08-06T09:39:29;16.10;99.90
38726;DHT22;24474;48.906;8.808;2023-08-06T09:41:57;16.00;99.90
38726;DHT22;24474;48.906;8.808;2023-08-06T09:44:24;16.00;99.90
38726;DHT22;24474;48.906;8.808;2023-08-06T09:46:55;16.00;99.90
38726;DHT22;24474;48.906;8.808;2023-08-06T09:49:26;16.00;99.90
38726;DHT22;24474;48.906;8.808;2023-08-06T09:51:52;16.00;99.90
38726;DHT22;24474;48.906;8.808;2023-08-06T09:54:22;16.00;99.90
38726;DHT22;24474;48.906;8.808;2023-08-06T09:56:48;16.00;99.90
38726;DHT22;24474;48.906;8.808;2023-08-06T09:59:14;16.10;99.90
38726;DHT22;24474;48.906;8.808;2023-08-06T10:01:41;16.20;99.90
38726;DHT22;24474;48.906;8.808;2023-08-06T10:04:07;16.30;99.90
38726;DHT22;24474;48.906;8.808;2023-08-06T10:06:34;16.30;99.90
38726;DHT22;24474;48.906;8.808;2023-08-06T10:09:04;16.30;99.90
38726;DHT22;24474;48.906;8.808;2023-08-06T10:11:30;16.30;99.90
38726;DHT22;24474;48.906;8.808;2023-08-06T10:14:16;16.30;99.90
38726;DHT22;24474;48.906;8.808;2023-08-06T10:16:44;16.30;99.90
38726;DHT22;24474;48.906;8.808;2023-08-06T10:19:12;16.40;99.90
38726;DHT22;24474;48.906;8.808;2023-08-06T10:21:39;16.30;99.90
38726;DHT22;24474;48.906;8.808;2023-08-06T10:24:08;16.30;99.90
38726;DHT22;24474;48.906;8.808;2023-08-06T10:26:37;16.20;99.90
38726;DHT22;24474;48.906;8.808;2023-08-06T10:29:35;16.10;99.90
38726;DHT22;24474;48.906;8.808;2023-08-06T10:32:02;16.10;99.90
38726;DHT22;24474;48.906;8.808;2023-08-06T10:34:56;16.00;99.90
38726;DHT22;24474;48.906;8.808;2023-08-06T10:37:22;15.90;99.90
38726;DHT22;24474;48.906;8.808;2023-08-06T10:39:52;15.80;99.90
38726;DHT22;24474;48.906;8.808;2023-08-06T10:42:27;15.70;99.90
38726;DHT22;24474;48.906;8.808;2023-08-06T10:45:16;15.60;99.90
38726;DHT22;24474;48.906;8.808;2023-08-06T10:47:43;15.50;99.90
38726;DHT22;24474;48.906;8.808;2023-08-06T10:50:12;15.50;99.90
38726;DHT22;24474;48.906;8.808;2023-08-06T10:52:39;15.40;99.90
38726;DHT22;24474;48.906;8.808;2023-08-06T10:55:05;15.40;99.90
38726;DHT22;24474;48.906;8.808;2023-08-06T10:57:31;15.40;99.90
38726;DHT22;24474;48.906;8.808;2023-08-06T10:59:57;15.40;99.90
38726;DHT22;24474;48.906;8.808;2023-08-06T11:02:22;15.40;99.90
38726;DHT22;24474;48.906;8.808;2023-08-06T11:04:48;15.40;99.90
38726;DHT22;24474;48.906;8.808;2023-08-06T11:07:14;15.40;99.90
38726;DHT22;24474;48.906;8.808;2023-08-06T11:09:40;15.50;99.90
38726;DHT22;24474;48.906;8.808;2023-08-06T11:12:11;15.50;99.90
38726;DHT22;24474;48.906;8.808;2023-08-06T11:14:39;15.50;99.90
38726;DHT22;24474;48.906;8.808;2023-08-06T11:17:05;15.50;99.90
38726;DHT22;24474;48.906;8.808;2023-08-06T11:19:31;15.30;99.90
38726;DHT22;24474;48.906;8.808;2023-08-06T11:22:00;15.20;99.90
38726;DHT22;24474;48.906;8.808;2023-08-06T11:24:27;15.10;99.90
38726;DHT22;24474;48.906;8.808;2023-08-06T11:26:53;15.10;99.90
38726;DHT22;24474;48.906;8.808;2023-08-06T11:29:18;15.00;99.90
38726;DHT22;24474;48.906;8.808;2023-08-06T11:31:44;15.00;99.90
38726;DHT22;24474;48.906;8.808;2023-08-06T11:34:10;15.00;99.90
38726;DHT22;24474;48.906;8.808;2023-08-06T11:36:40;14.90;99.90
38726;DHT22;24474;48.906;8.808;2023-08-06T11:39:06;14.80;99.90
38726;DHT22;24474;48.906;8.808;2023-08-06T11:41:32;14.70;99.90
38726;DHT22;24474;48.906;8.808;2023-08-06T11:43:59;14.70;99.90
38726;DHT22;24474;48.906;8.808;2023-08-06T11:46:25;14.60;99.90
38726;DHT22;24474;48.906;8.808;2023-08-06T11:48:55;14.50;99.90
38726;DHT22;24474;48.906;8.808;2023-08-06T11:51:27;14.50;99.90
38726;DHT22;24474;48.906;8.808;2023-08-06T11:53:57;14.50;99.90
38726;DHT22;24474;48.906;8.808;2023-08-06T11:56:26;14.50;99.90
38726;DHT22;24474;48.906;8.808;2023-08-06T11:58:54;14.50;99.90
38726;DHT22;24474;48.906;8.808;2023-08-06T12:01:20;14.50;99.90
38726;DHT22;24474;48.906;8.808;2023-08-06T12:03:45;14.40;99.90
38726;DHT22;24474;48.906;8.808;2023-08-06T12:06:11;14.40;99.90
38726;DHT22;24474;48.906;8.808;2023-08-06T12:08:37;14.50;99.90
38726;DHT22;24474;48.906;8.808;2023-08-06T12:11:03;14.50;99.90
38726;DHT22;24474;48.906;8.808;2023-08-06T12:13:29;14.50;99.90
38726;DHT22;24474;48.906;8.808;2023-08-06T12:15:55;14.50;99.90
38726;DHT22;24474;48.906;8.808;2023-08-06T12:18:22;14.50;99.90
38726;DHT22;24474;48.906;8.808;2023-08-06T12:20:48;14.50;99.90
38726;DHT22;24474;48.906;8.808;2023-08-06T12:23:14;14.50;99.90
38726;DHT22;24474;48.906;8.808;2023-08-06T12:25:41;14.50;99.90
38726;DHT22;24474;48.906;8.808;2023-08-06T12:28:07;14.50;99.90
38726;DHT22;24474;48.906;8.808;2023-08-06T12:30:34;14.50;99.90
38726;DHT22;24474;48.906;8.808;2023-08-06T12:32:59;14.60;99.90
38726;DHT22;24474;48.906;8.808;2023-08-06T12:35:25;14.60;99.90
38726;DHT22;24474;48.906;8.808;2023-08-06T12:37:51;14.70;99.90
38726;DHT22;24474;48.906;8.808;2023-08-06T12:40:20;14.70;99.90
38726;DHT22;24474;48.906;8.808;2023-08-06T12:42:45;14.80;99.90
38726;DHT22;24474;48.906;8.808;2023-08-06T12:45:12;14.80;99.90
38726;DHT22;24474;48.906;8.808;2023-08-06T12:47:37;14.90;99.90
38726;DHT22;24474;48.906;8.808;2023-08-06T12:50:03;14.90;99.90
38726;DHT22;24474;48.906;8.808;2023-08-06T12:52:29;14.90;99.90
38726;DHT22;24474;48.906;8.808;2023-08-06T12:54:55;14.90;99.90
38726;DHT22;24474;48.906;8.808;2023-08-06T12:57:20;14.90;99.90
38726;DHT22;24474;48.906;8.808;2023-08-06T12:59:46;14.90;99.90
38726;DHT22;24474;48.906;8.808;2023-08-06T13:02:12;14.90;99.90
38726;DHT22;24474;48.906;8.808;2023-08-06T13:04:39;14.90;99.90
38726;DHT22;24474;48.906;8.808;2023-08-06T13:07:05;14.90;99.90
38726;DHT22;24474;48.906;8.808;2023-08-06T13:09:32;15.00;99.90
38726;DHT22;24474;48.906;8.808;2023-08-06T13:12:01;15.00;99.90
38726;DHT22;24474;48.906;8.808;2023-08-06T13:14:30;14.90;99.90
38726;DHT22;24474;48.906;8.808;2023-08-06T13:16:56;14.90;99.90
38726;DHT22;24474;48.906;8.808;2023-08-06T13:19:21;14.90;99.90
38726;DHT22;24474;48.906;8.808;2023-08-06T13:24:14;14.80;99.90
38726;DHT22;24474;48.906;8.808;2023-08-06T13:26:39;14.80;99.90
38726;DHT22;24474;48.906;8.808;2023-08-06T13:29:05;15.00;99.90
38726;DHT22;24474;48.906;8.808;2023-08-06T13:31:32;15.10;99.90
38726;DHT22;24474;48.906;8.808;2023-08-06T13:33:58;15.10;99.90
38726;DHT22;24474;48.906;8.808;2023-08-06T13:36:25;15.10;99.90
38726;DHT22;24474;48.906;8.808;2023-08-06T13:38:51;15.10;99.90
38726;DHT22;24474;48.906;8.808;2023-08-06T13:41:17;15.00;99.90
38726;DHT22;24474;48.906;8.808;2023-08-06T13:43:43;15.00;99.90
38726;DHT22;24474;48.906;8.808;2023-08-06T13:46:10;15.00;99.90
38726;DHT22;24474;48.906;8.808;2023-08-06T13:48:42;15.00;99.90
38726;DHT22;24474;48.906;8.808;2023-08-06T13:51:08;15.00;99.90
38726;DHT22;24474;48.906;8.808;2023-08-06T13:53:40;14.90;99.90
38726;DHT22;24474;48.906;8.808;2023-08-06T13:56:07;14.90;99.90
38726;DHT22;24474;48.906;8.808;2023-08-06T13:58:33;15.00;99.90
38726;DHT22;24474;48.906;8.808;2023-08-06T14:00:59;15.00;99.90
38726;DHT22;24474;48.906;8.808;2023-08-06T14:03:24;15.00;99.90
38726;DHT22;24474;48.906;8.808;2023-08-06T14:05:50;15.10;99.90
38726;DHT22;24474;48.906;8.808;2023-08-06T14:08:16;15.20;99.90
38726;DHT22;24474;48.906;8.808;2023-08-06T14:10:45;15.30;99.90
38726;DHT22;24474;48.906;8.808;2023-08-06T14:13:11;15.30;99.90
38726;DHT22;24474;48.906;8.808;2023-08-06T14:15:37;15.40;99.90
38726;DHT22;24474;48.906;8.808;2023-08-06T14:18:05;15.50;99.90
38726;DHT22;24474;48.906;8.808;2023-08-06T14:20:30;15.50;99.90
38726;DHT22;24474;48.906;8.808;2023-08-06T14:22:56;15.50;99.90
38726;DHT22;24474;48.906;8.808;2023-08-06T14:25:22;15.50;99.90
38726;DHT22;24474;48.906;8.808;2023-08-06T14:27:48;15.50;99.90
38726;DHT22;24474;48.906;8.808;2023-08-06T14:30:13;15.50;99.90
38726;DHT22;24474;48.906;8.808;2023-08-06T14:32:39;15.60;99.90
38726;DHT22;24474;48.906;8.808;2023-08-06T14:35:07;15.60;99.90
38726;DHT22;24474;48.906;8.808;2023-08-06T14:37:33;15.70;99.90
38726;DHT22;24474;48.906;8.808;2023-08-06T14:39:59;15.70;99.90
38726;DHT22;24474;48.906;8.808;2023-08-06T14:42:24;15.70;99.90
38726;DHT22;24474;48.906;8.808;2023-08-06T14:44:50;15.70;99.90
38726;DHT22;24474;48.906;8.808;2023-08-06T14:47:18;15.70;99.90
38726;DHT22;24474;48.906;8.808;2023-08-06T14:49:44;15.70;99.90
38726;DHT22;24474;48.906;8.808;2023-08-06T14:52:10;15.70;99.90
38726;DHT22;24474;48.906;8.808;2023-08-06T14:54:35;15.60;99.90
38726;DHT22;24474;48.906;8.808;2023-08-06T14:57:01;15.60;99.90
38726;DHT22;24474;48.906;8.808;2023-08-06T14:59:27;15.70;99.90
38726;DHT22;24474;48.906;8.808;2023-08-06T15:01:52;15.70;99.90
38726;DHT22;24474;48.906;8.808;2023-08-06T15:04:18;15.80;99.90
38726;DHT22;24474;48.906;8.808;2023-08-06T15:06:44;15.80;99.90
38726;DHT22;24474;48.906;8.808;2023-08-06T15:09:10;15.80;99.90
38726;DHT22;24474;48.906;8.808;2023-08-06T15:11:35;15.80;99.90
38726;DHT22;24474;48.906;8.808;2023-08-06T15:14:01;15.70;99.90
38726;DHT22;24474;48.906;8.808;2023-08-06T15:16:29;15.70;99.90
38726;DHT22;24474;48.906;8.808;2023-08-06T15:18:54;15.80;99.90
38726;DHT22;24474;48.906;8.808;2023-08-06T15:21:20;15.80;99.90
38726;DHT22;24474;48.906;8.808;2023-08-06T15:23:45;15.90;99.90
38726;DHT22;24474;48.906;8.808;2023-08-06T15:26:11;15.90;99.90
38726;DHT22;24474;48.906;8.808;2023-08-06T15:28:37;16.00;99.90